Time;durP1;ratioP1;P1;durP2;ratioP2;P2;SDS_P1;SDS_P2;PMS_P1;PMS_P2;Temp;Humidity;BMP_temperature;BMP_pressure;BME280_temperature;BME280_humidity;BME280_pressure;Samples;Min_cycle;Max_cycle;Signal;HPM_P1;HPM_P2
2021/04/22 00:00:54;;;;;;;9.57;7.90;;;11.40;99.90;;;;;;5102213;28;20480;-85
2021/04/22 00:03:21;;;;;;;11.37;7.43;;;11.40;99.90;;;;;;5105606;28;20509;-85
2021/04/22 00:05:48;;;;;;;11.40;8.23;;;11.30;99.90;;;;;;5097804;28;20439;-85
2021/04/22 00:08:15;;;;;;;10.57;6.97;;;11.40;99.90;;;;;;5098876;28;20467;-85
2021/04/22 00:10:43;;;;;;;11.00;8.50;;;11.40;99.90;;;;;;5098681;28;20515;-85
2021/04/22 00:13:10;;;;;;;12.10;7.90;;;11.40;99.90;;;;;;5098501;28;20909;-84
2021/04/22 00:15:37;;;;;;;9.13;8.13;;;11.30;99.90;;;;;;5099260;28;21016;-85
2021/04/22 00:18:07;;;;;;;9.83;7.43;;;11.30;99.90;;;;;;5087532;28;20497;-85
2021/04/22 00:20:35;;;;;;;8.70;7.20;;;11.30;99.90;;;;;;5078171;28;20464;-84
2021/04/22 00:23:02;;;;;;;9.07;7.07;;;11.30;99.90;;;;;;5081162;28;20472;-85
2021/04/22 00:25:28;;;;;;;11.70;7.77;;;11.20;99.90;;;;;;5081331;28;20502;-84
2021/04/22 00:27:55;;;;;;;13.10;8.03;;;11.20;99.90;;;;;;5086442;28;20427;-85
2021/04/22 00:30:22;;;;;;;13.37;7.60;;;11.30;99.90;;;;;;5085456;28;20419;-85
2021/04/22 00:32:48;;;;;;;9.60;7.43;;;11.20;99.90;;;;;;5079104;28;20482;-85
2021/04/22 00:35:15;;;;;;;9.37;7.57;;;11.20;99.90;;;;;;5078842;28;21195;-84
2021/04/22 00:37:41;;;;;;;13.93;8.00;;;11.20;99.90;;;;;;5081219;28;20537;-85
2021/04/22 00:40:12;;;;;;;8.63;7.20;;;11.20;99.90;;;;;;5083568;28;20487;-85
2021/04/22 00:42:39;;;;;;;10.60;7.57;;;11.20;99.90;;;;;;5082089;28;20500;-84
2021/04/22 00:45:06;;;;;;;9.93;8.13;;;11.20;99.90;;;;;;5105453;28;20464;-85
2021/04/22 00:47:33;;;;;;;10.87;7.60;;;11.30;99.90;;;;;;5099453;28;20498;-85
2021/04/22 00:50:00;;;;;;;10.10;7.70;;;11.40;99.90;;;;;;5101816;28;22046;-85
2021/04/22 00:52:27;;;;;;;13.50;9.17;;;11.50;99.90;;;;;;5080551;28;20484;-85
2021/04/22 00:54:53;;;;;;;11.83;8.40;;;11.50;99.90;;;;;;5080939;28;20421;-84
2021/04/22 00:57:20;;;;;;;11.23;7.70;;;11.60;99.90;;;;;;5081733;28;20484;-85
2021/04/22 00:59:46;;;;;;;10.60;8.00;;;11.50;99.90;;;;;;5082158;28;20512;-85
2021/04/22 01:02:14;;;;;;;10.53;8.13;;;11.50;99.90;;;;;;5083734;28;20512;-84
2021/04/22 01:04:40;;;;;;;10.70;8.17;;;11.60;99.90;;;;;;5094565;28;20468;-83
2021/04/22 01:07:07;;;;;;;12.00;8.63;;;11.60;99.90;;;;;;5097142;28;20504;-85
2021/04/22 01:09:33;;;;;;;11.67;9.07;;;11.50;99.90;;;;;;5097522;28;20448;-84
2021/04/22 01:12:03;;;;;;;14.60;9.13;;;11.50;99.90;;;;;;5098587;28;20532;-84
2021/04/22 01:14:30;;;;;;;13.07;9.13;;;11.50;99.90;;;;;;5098286;28;20446;-84
2021/04/22 01:16:56;;;;;;;11.43;9.47;;;11.50;99.90;;;;;;5097589;28;20514;-85
2021/04/22 01:19:24;;;;;;;9.90;8.90;;;11.60;99.90;;;;;;5096594;28;20495;-85
2021/04/22 01:21:51;;;;;;;12.57;9.80;;;11.70;99.90;;;;;;5101853;28;20459;-85
2021/04/22 01:24:18;;;;;;;13.63;9.90;;;11.60;99.90;;;;;;5095396;28;20463;-84
2021/04/22 01:26:45;;;;;;;12.00;8.47;;;11.60;99.90;;;;;;5098834;28;20444;-84
2021/04/22 01:29:11;;;;;;;15.57;10.50;;;11.60;99.90;;;;;;5103140;28;20443;-84
2021/04/22 01:31:38;;;;;;;13.90;10.87;;;11.60;99.90;;;;;;5095338;28;20487;-84
2021/04/22 01:34:06;;;;;;;11.73;10.03;;;11.50;99.90;;;;;;5106888;28;20557;-83
2021/04/22 01:36:34;;;;;;;12.23;10.00;;;11.50;99.90;;;;;;5105279;28;20431;-85
2021/04/22 01:39:03;;;;;;;13.00;10.80;;;11.60;99.90;;;;;;5107494;28;20496;-84
2021/04/22 01:41:30;;;;;;;14.10;10.43;;;11.60;99.90;;;;;;5114234;28;20458;-85
2021/04/22 01:43:56;;;;;;;12.83;10.73;;;11.60;99.90;;;;;;5103527;28;20467;-85
2021/04/22 01:46:23;;;;;;;13.50;11.10;;;11.70;99.90;;;;;;5100452;28;20511;-85
2021/04/22 01:48:50;;;;;;;15.03;11.13;;;11.70;99.90;;;;;;5086954;28;20448;-85
2021/04/22 01:51:16;;;;;;;14.93;12.53;;;11.60;99.90;;;;;;5094668;28;20465;-84
2021/04/22 01:53:43;;;;;;;15.70;13.33;;;11.60;99.90;;;;;;5095743;28;20463;-84
2021/04/22 01:56:10;;;;;;;15.60;11.97;;;11.50;99.90;;;;;;5086921;28;20451;-84
2021/04/22 01:58:37;;;;;;;15.00;12.80;;;11.50;99.90;;;;;;5079182;28;20520;-85
2021/04/22 02:01:04;;;;;;;19.83;14.77;;;11.50;99.90;;;;;;5080113;28;20455;-84
2021/04/22 02:03:32;;;;;;;14.63;12.23;;;11.50;99.90;;;;;;5078499;28;20613;-85
2021/04/22 02:05:59;;;;;;;17.60;14.80;;;11.60;99.90;;;;;;5091522;28;20471;-86
2021/04/22 02:08:26;;;;;;;16.90;13.20;;;11.50;99.90;;;;;;5098268;28;20808;-86
2021/04/22 02:10:52;;;;;;;16.70;13.00;;;11.40;99.90;;;;;;5099632;28;20555;-83
2021/04/22 02:13:21;;;;;;;16.10;13.90;;;11.40;99.90;;;;;;5093197;28;20503;-84
2021/04/22 02:15:49;;;;;;;17.80;14.00;;;11.50;99.90;;;;;;5094098;28;20535;-86
2021/04/22 02:18:15;;;;;;;19.93;13.30;;;11.40;99.90;;;;;;5099024;28;20453;-84
2021/04/22 02:20:42;;;;;;;19.00;15.07;;;11.50;99.90;;;;;;5099974;28;20545;-84
2021/04/22 02:23:12;;;;;;;18.23;14.47;;;11.40;99.90;;;;;;5102460;28;20526;-85
2021/04/22 02:25:40;;;;;;;19.03;15.57;;;11.50;99.90;;;;;;5103467;28;20531;-84
2021/04/22 02:28:06;;;;;;;22.07;17.17;;;11.50;99.90;;;;;;5081431;28;20927;-84
2021/04/22 02:30:36;;;;;;;22.20;17.37;;;11.50;99.90;;;;;;5084035;28;20996;-84
2021/04/22 02:33:04;;;;;;;28.10;18.60;;;11.60;99.90;;;;;;5082594;28;20456;-84
2021/04/22 02:35:34;;;;;;;28.47;21.50;;;11.60;99.90;;;;;;5079814;28;20478;-85
2021/04/22 02:38:01;;;;;;;28.50;21.93;;;11.70;99.90;;;;;;5078799;28;20527;-85
2021/04/22 02:40:30;;;;;;;26.33;20.70;;;11.70;99.90;;;;;;5086955;28;20462;-85
2021/04/22 02:42:57;;;;;;;27.63;21.07;;;11.70;99.90;;;;;;5085762;28;20482;-85
2021/04/22 02:45:26;;;;;;;26.60;22.20;;;11.70;99.90;;;;;;5111071;28;20451;-84
2021/04/22 02:47:53;;;;;;;27.80;21.87;;;11.70;99.90;;;;;;5110629;28;20459;-85
2021/04/22 02:50:23;;;;;;;35.10;25.27;;;11.80;99.90;;;;;;5108023;28;20440;-85
2021/04/22 02:52:50;;;;;;;29.70;23.43;;;11.80;99.90;;;;;;5097626;28;20894;-85
2021/04/22 02:55:17;;;;;;;34.40;26.27;;;11.90;99.90;;;;;;5087623;28;20460;-86
2021/04/22 02:57:43;;;;;;;32.97;26.60;;;11.80;99.90;;;;;;5083495;28;20451;-86
2021/04/22 03:00:15;;;;;;;37.10;24.67;;;11.80;99.90;;;;;;5083707;28;20538;-86
2021/04/22 03:02:41;;;;;;;33.33;24.50;;;11.90;99.90;;;;;;5080307;28;20456;-86
2021/04/22 03:05:10;;;;;;;31.30;23.77;;;11.90;99.90;;;;;;5076433;28;20786;-85
2021/04/22 03:07:36;;;;;;;31.60;24.67;;;12.10;99.90;;;;;;5077252;28;20515;-86
2021/04/22 03:10:04;;;;;;;31.50;24.00;;;12.10;99.90;;;;;;5081436;28;20477;-86
2021/04/22 03:12:30;;;;;;;30.00;22.87;;;12.00;99.90;;;;;;5081829;28;20443;-86
2021/04/22 03:14:57;;;;;;;31.40;23.40;;;11.90;99.90;;;;;;5101879;28;20506;-86
2021/04/22 03:17:23;;;;;;;35.83;25.70;;;11.90;99.90;;;;;;5101896;28;20538;-86
2021/04/22 03:19:50;;;;;;;29.43;23.43;;;11.90;99.90;;;;;;5104205;28;20476;-86
2021/04/22 03:22:17;;;;;;;32.20;23.40;;;11.80;99.90;;;;;;5107259;28;20474;-86
2021/04/22 03:24:43;;;;;;;33.57;22.53;;;11.80;99.90;;;;;;5106715;28;20519;-85
2021/04/22 03:27:12;;;;;;;29.23;21.23;;;11.80;99.90;;;;;;5102774;28;20859;-86
2021/04/22 03:29:39;;;;;;;35.20;23.60;;;11.70;99.90;;;;;;5097008;28;20458;-85
2021/04/22 03:32:06;;;;;;;30.10;22.47;;;11.60;99.90;;;;;;5096114;28;20434;-86
2021/04/22 03:34:32;;;;;;;27.57;21.63;;;11.60;99.90;;;;;;5095590;28;20495;-86
2021/04/22 03:36:58;;;;;;;29.53;23.37;;;11.60;99.90;;;;;;5095098;28;20430;-86
2021/04/22 03:39:26;;;;;;;30.03;23.10;;;11.50;99.90;;;;;;5094863;28;20527;-86
2021/04/22 03:41:52;;;;;;;32.43;22.67;;;11.50;99.90;;;;;;5095260;28;20457;-86
2021/04/22 03:44:18;;;;;;;26.47;20.80;;;11.50;99.90;;;;;;5102939;28;20577;-86
2021/04/22 03:46:45;;;;;;;27.27;21.07;;;11.40;99.90;;;;;;5086873;28;20948;-86
2021/04/22 03:49:11;;;;;;;29.67;20.33;;;11.50;99.90;;;;;;5099153;28;20507;-87
2021/04/22 03:51:38;;;;;;;27.07;20.90;;;11.40;99.90;;;;;;5109746;28;20512;-86
2021/04/22 03:54:06;;;;;;;23.00;17.70;;;11.40;99.90;;;;;;5097269;28;20510;-86
2021/04/22 03:56:33;;;;;;;25.23;19.70;;;11.20;99.90;;;;;;5097016;28;20455;-86
2021/04/22 03:59:02;;;;;;;24.70;20.20;;;11.20;99.90;;;;;;5105199;28;20479;-85
2021/04/22 04:01:29;;;;;;;26.47;20.10;;;11.30;99.90;;;;;;5112765;28;20465;-85
2021/04/22 04:03:55;;;;;;;27.30;20.33;;;11.30;99.90;;;;;;5091054;28;20497;-85
2021/04/22 04:06:21;;;;;;;27.10;18.90;;;11.10;99.90;;;;;;5077202;28;20440;-85
2021/04/22 04:08:48;;;;;;;22.57;15.40;;;11.10;99.90;;;;;;5077323;28;20458;-85
2021/04/22 04:11:14;;;;;;;24.87;18.73;;;11.00;99.90;;;;;;5079989;28;20443;-85
2021/04/22 04:13:41;;;;;;;25.53;18.40;;;10.80;99.90;;;;;;5088536;28;20558;-85
2021/04/22 04:16:08;;;;;;;21.63;12.90;;;10.60;99.90;;;;;;5097522;28;20534;-85
2021/04/22 04:18:34;;;;;;;27.13;19.27;;;10.50;99.90;;;;;;5083643;28;20903;-85
2021/04/22 04:21:00;;;;;;;25.27;19.87;;;10.40;99.90;;;;;;5076711;28;20448;-86
2021/04/22 04:23:27;;;;;;;29.63;19.17;;;10.50;99.90;;;;;;5075845;28;20504;-87
2021/04/22 04:25:53;;;;;;;25.30;18.13;;;10.60;99.90;;;;;;5075181;28;20581;-87
2021/04/22 04:28:19;;;;;;;25.00;18.43;;;10.60;99.90;;;;;;5075232;28;20501;-86
2021/04/22 04:30:47;;;;;;;25.43;18.47;;;10.50;99.90;;;;;;5076150;28;20476;-87
2021/04/22 04:33:14;;;;;;;27.33;21.60;;;10.30;99.90;;;;;;5076048;28;20524;-87
2021/04/22 04:35:40;;;;;;;25.73;19.90;;;10.30;99.90;;;;;;5077591;28;20520;-87
2021/04/22 04:38:07;;;;;;;27.97;21.37;;;10.50;99.90;;;;;;5081447;28;20519;-86
2021/04/22 04:40:33;;;;;;;27.20;20.10;;;10.50;99.90;;;;;;5075682;28;20495;-86
2021/04/22 04:45:38;;;;;;;24.00;20.57;;;10.50;99.90;;;;;;5075676;28;21005;-81
2021/04/22 04:48:09;;;;;;;24.67;18.17;;;10.60;99.90;;;;;;5094912;28;20578;-81
2021/04/22 04:50:35;;;;;;;28.53;19.60;;;10.70;99.90;;;;;;5089293;28;20462;-81
2021/04/22 04:53:02;;;;;;;27.67;18.50;;;10.70;99.90;;;;;;5074549;28;20527;-81
2021/04/22 04:55:32;;;;;;;27.20;20.53;;;10.60;99.90;;;;;;5054948;28;20445;-81
2021/04/22 04:57:58;;;;;;;27.53;19.40;;;10.50;99.90;;;;;;5054200;28;20959;-81
2021/04/22 05:00:25;;;;;;;23.87;18.73;;;10.50;99.90;;;;;;5053861;28;21056;-81
2021/04/22 05:02:52;;;;;;;25.43;18.40;;;10.50;99.90;;;;;;5054807;28;20893;-81
2021/04/22 05:05:19;;;;;;;25.50;20.93;;;10.70;99.90;;;;;;5054882;28;20702;-81
2021/04/22 05:07:46;;;;;;;30.70;20.70;;;10.60;99.90;;;;;;5055003;28;20527;-82
2021/04/22 05:10:14;;;;;;;29.10;21.17;;;10.70;99.90;;;;;;5054578;28;20460;-81
2021/04/22 05:12:40;;;;;;;26.63;20.73;;;10.70;99.90;;;;;;5054332;28;20457;-81
2021/04/22 05:15:11;;;;;;;25.63;19.83;;;10.80;99.90;;;;;;5049663;28;20540;-81
2021/04/22 05:17:38;;;;;;;24.80;19.90;;;10.80;99.90;;;;;;5057114;28;20453;-82
2021/04/22 05:20:06;;;;;;;26.00;19.80;;;10.80;99.90;;;;;;5055934;28;20985;-81
2021/04/22 05:22:33;;;;;;;26.20;19.70;;;10.80;99.90;;;;;;5056177;28;20445;-81
2021/04/22 05:25:00;;;;;;;26.43;19.10;;;10.80;99.90;;;;;;5057650;28;20461;-81
2021/04/22 05:27:26;;;;;;;24.43;18.90;;;10.80;99.90;;;;;;5061308;28;20506;-80
2021/04/22 05:29:52;;;;;;;22.63;14.47;;;10.80;99.90;;;;;;5062191;28;20469;-80
2021/04/22 05:32:19;;;;;;;22.23;16.00;;;10.70;99.90;;;;;;5063822;28;20457;-81
2021/04/22 05:34:45;;;;;;;25.50;18.20;;;10.70;99.90;;;;;;5063275;28;20566;-80
2021/04/22 05:37:12;;;;;;;26.67;19.77;;;10.60;99.90;;;;;;5062142;28;20537;-81
2021/04/22 05:39:39;;;;;;;28.37;19.00;;;10.60;99.90;;;;;;5054190;28;20484;-81
2021/04/22 05:42:06;;;;;;;27.73;19.60;;;10.50;99.90;;;;;;5033884;28;20489;-81
2021/04/22 05:44:32;;;;;;;25.87;18.17;;;10.50;99.90;;;;;;5043991;28;20504;-80
2021/04/22 05:47:00;;;;;;;25.97;18.27;;;10.60;99.90;;;;;;5053888;28;21033;-80
2021/04/22 05:49:27;;;;;;;25.97;20.37;;;10.60;99.90;;;;;;5054136;28;20454;-80
2021/04/22 05:51:53;;;;;;;22.80;18.23;;;10.60;99.90;;;;;;5055145;28;20477;-81
2021/04/22 05:54:19;;;;;;;22.70;15.40;;;10.70;99.90;;;;;;5054397;28;20465;-82
2021/04/22 05:56:47;;;;;;;26.87;14.03;;;10.60;99.90;;;;;;5054811;28;20434;-82
2021/04/22 05:59:13;;;;;;;24.77;19.53;;;10.40;99.90;;;;;;5054155;28;20503;-82
2021/04/22 06:01:39;;;;;;;28.17;19.50;;;10.40;99.90;;;;;;5056853;28;20467;-81
2021/04/22 06:04:06;;;;;;;27.30;19.47;;;10.50;99.90;;;;;;5057006;28;20477;-80
2021/04/22 06:06:32;;;;;;;28.17;18.67;;;10.60;99.90;;;;;;5055503;28;20455;-80
2021/04/22 06:08:59;;;;;;;24.50;18.13;;;10.60;99.90;;;;;;5053595;28;20463;-81
2021/04/22 06:11:25;;;;;;;29.50;17.57;;;10.60;99.90;;;;;;5054494;28;20561;-81
2021/04/22 06:13:52;;;;;;;26.27;19.27;;;10.50;99.90;;;;;;5054232;28;20906;-82
2021/04/22 06:16:19;;;;;;;29.00;20.07;;;10.50;99.90;;;;;;5054071;28;20453;-82
2021/04/22 06:18:45;;;;;;;22.73;17.20;;;10.60;99.90;;;;;;5053711;28;20533;-82
2021/04/22 06:21:12;;;;;;;23.03;18.37;;;10.70;99.90;;;;;;5053982;28;20817;-82
2021/04/22 06:23:39;;;;;;;22.80;14.97;;;10.70;99.90;;;;;;5054361;28;20903;-82
2021/04/22 06:26:06;;;;;;;23.57;18.13;;;10.60;99.90;;;;;;5056185;28;20560;-82
2021/04/22 06:28:32;;;;;;;25.40;19.37;;;10.70;99.90;;;;;;5058338;28;20639;-82
2021/04/22 06:30:59;;;;;;;22.97;16.67;;;10.80;99.90;;;;;;5056876;28;20445;-82
2021/04/22 06:33:26;;;;;;;27.67;21.20;;;10.80;99.90;;;;;;5057764;28;20464;-82
2021/04/22 06:35:52;;;;;;;25.30;18.20;;;10.90;99.90;;;;;;5057291;28;20998;-82
2021/04/22 06:38:19;;;;;;;26.00;19.43;;;10.80;99.90;;;;;;5055431;28;20476;-82
2021/04/22 06:40:45;;;;;;;30.33;20.30;;;10.80;99.90;;;;;;5057730;28;21161;-82
2021/04/22 06:43:13;;;;;;;27.00;15.87;;;11.00;99.90;;;;;;5057664;28;20447;-82
2021/04/22 06:45:40;;;;;;;22.30;15.57;;;10.90;99.90;;;;;;5057394;28;20449;-82
2021/04/22 06:48:09;;;;;;;27.23;19.57;;;10.80;99.90;;;;;;5055520;28;20502;-82
2021/04/22 06:50:36;;;;;;;25.60;18.20;;;10.80;99.90;;;;;;5056522;28;20420;-82
2021/04/22 06:53:02;;;;;;;19.87;14.13;;;10.90;99.90;;;;;;5057809;28;20476;-82
2021/04/22 06:55:29;;;;;;;23.47;16.90;;;10.80;99.90;;;;;;5061765;28;20532;-82
2021/04/22 06:57:55;;;;;;;15.60;9.70;;;10.70;99.90;;;;;;5074843;28;20555;-82
2021/04/22 07:00:23;;;;;;;23.73;17.33;;;10.60;99.90;;;;;;5078917;28;20495;-82
2021/04/22 07:02:50;;;;;;;19.40;15.93;;;10.60;99.90;;;;;;5079366;28;20538;-82
2021/04/22 07:05:19;;;;;;;28.73;15.90;;;10.50;99.90;;;;;;5058949;28;20825;-82
2021/04/22 07:07:45;;;;;;;26.50;14.93;;;10.70;99.90;;;;;;5057123;28;20484;-82
2021/04/22 07:10:13;;;;;;;24.67;15.50;;;10.80;99.90;;;;;;5056722;28;20519;-82
2021/04/22 07:12:39;;;;;;;21.53;16.53;;;10.90;99.90;;;;;;5058627;28;20456;-82
2021/04/22 07:15:08;;;;;;;26.30;16.33;;;10.60;99.90;;;;;;5038696;28;20687;-82
2021/04/22 07:17:35;;;;;;;28.63;16.67;;;10.60;99.90;;;;;;5042852;28;20485;-82
2021/04/22 07:20:01;;;;;;;22.33;10.80;;;10.70;99.90;;;;;;5057297;28;20894;-82
2021/04/22 07:22:28;;;;;;;21.30;16.60;;;10.80;99.90;;;;;;5056906;28;20488;-82
2021/04/22 07:24:55;;;;;;;25.03;16.63;;;10.70;99.90;;;;;;5056881;28;20884;-82
2021/04/22 07:27:21;;;;;;;28.03;15.57;;;10.70;99.90;;;;;;5056717;28;20457;-79
2021/04/22 07:29:48;;;;;;;21.33;13.67;;;10.80;99.90;;;;;;5057294;28;20535;-82
2021/04/22 07:32:15;;;;;;;24.30;14.90;;;10.80;99.90;;;;;;5057021;28;20460;-82
2021/04/22 07:34:42;;;;;;;18.67;10.70;;;10.70;99.90;;;;;;5057192;28;20564;-82
2021/04/22 07:37:08;;;;;;;23.10;16.50;;;10.80;99.90;;;;;;5057097;28;20475;-82
2021/04/22 07:39:35;;;;;;;21.70;14.80;;;10.80;99.90;;;;;;5056864;28;20568;-80
2021/04/22 07:42:02;;;;;;;27.50;15.80;;;11.00;99.90;;;;;;5057631;28;20449;-82
2021/04/22 07:44:28;;;;;;;21.53;14.33;;;11.10;99.90;;;;;;5062077;28;20472;-82
2021/04/22 07:46:55;;;;;;;23.20;15.33;;;11.00;99.90;;;;;;5062463;28;20523;-82
2021/04/22 07:49:21;;;;;;;22.93;16.67;;;11.00;99.90;;;;;;5061173;28;20416;-82
2021/04/22 07:51:48;;;;;;;20.20;13.40;;;11.10;99.90;;;;;;5060711;28;20479;-82
2021/04/22 07:54:14;;;;;;;20.00;10.87;;;11.10;99.90;;;;;;5062159;28;20487;-80
2021/04/22 07:56:41;;;;;;;16.70;10.70;;;10.60;99.90;;;;;;5073172;28;20415;-80
2021/04/22 07:59:08;;;;;;;22.67;16.60;;;10.70;99.90;;;;;;5063184;28;21105;-80
2021/04/22 08:01:34;;;;;;;22.70;15.87;;;10.80;99.90;;;;;;5066848;28;20447;-81
2021/04/22 08:04:00;;;;;;;22.13;15.00;;;11.00;99.90;;;;;;5066745;28;20561;-81
2021/04/22 08:06:27;;;;;;;18.77;12.93;;;11.20;99.90;;;;;;5064243;28;20453;-81
2021/04/22 08:08:53;;;;;;;23.70;13.83;;;11.30;99.90;;;;;;5065137;28;20461;-81
2021/04/22 08:11:20;;;;;;;23.43;13.80;;;11.20;99.90;;;;;;5066052;28;20503;-81
2021/04/22 08:13:47;;;;;;;21.80;14.10;;;11.20;99.90;;;;;;5059601;28;20474;-81
2021/04/22 08:16:13;;;;;;;20.37;10.70;;;11.20;99.90;;;;;;5057706;28;20907;-82
2021/04/22 08:18:40;;;;;;;18.57;12.23;;;11.10;99.90;;;;;;5056876;28;20481;-81
2021/04/22 08:21:06;;;;;;;15.93;12.50;;;10.90;99.90;;;;;;5057440;28;20583;-82
2021/04/22 08:23:33;;;;;;;19.43;10.53;;;10.90;99.90;;;;;;5056350;28;20536;-82
2021/04/22 08:26:06;;;;;;;22.57;11.43;;;10.90;99.90;;;;;;5057262;28;20461;-82
2021/04/22 08:28:33;;;;;;;19.40;11.47;;;10.80;99.90;;;;;;5056208;28;20489;-81
2021/04/22 08:31:04;;;;;;;18.90;13.57;;;10.90;99.90;;;;;;5056692;28;20466;-81
2021/04/22 08:33:32;;;;;;;22.40;12.20;;;11.00;99.90;;;;;;5056552;28;20572;-82
2021/04/22 08:35:59;;;;;;;18.77;11.40;;;11.20;99.90;;;;;;5057779;28;20488;-82
2021/04/22 08:38:26;;;;;;;17.73;10.63;;;11.40;99.90;;;;;;5056624;28;20453;-82
2021/04/22 08:40:54;;;;;;;17.20;10.97;;;11.40;99.90;;;;;;5055907;28;21034;-82
2021/04/22 08:43:20;;;;;;;20.70;10.90;;;11.30;99.90;;;;;;5055767;28;20457;-82
2021/04/22 08:45:47;;;;;;;20.67;12.10;;;11.20;99.90;;;;;;5056922;28;20478;-81
2021/04/22 08:48:16;;;;;;;21.23;10.83;;;11.40;99.90;;;;;;5055292;28;20444;-81
2021/04/22 08:50:45;;;;;;;21.43;11.77;;;11.60;99.90;;;;;;5056766;28;20456;-82
2021/04/22 08:53:14;;;;;;;15.50;11.43;;;11.60;99.90;;;;;;5056169;28;20468;-83
2021/04/22 08:55:41;;;;;;;18.33;11.40;;;11.80;99.90;;;;;;5055643;28;20556;-81
2021/04/22 08:58:08;;;;;;;19.27;12.80;;;11.90;99.90;;;;;;5064886;28;20509;-81
2021/04/22 09:00:38;;;;;;;21.93;12.27;;;11.80;99.90;;;;;;5059421;28;20485;-82
2021/04/22 09:03:05;;;;;;;28.87;12.07;;;11.80;99.90;;;;;;5058817;28;20956;-82
2021/04/22 09:05:33;;;;;;;18.10;11.43;;;11.90;99.90;;;;;;5059968;28;20479;-82
2021/04/22 09:07:59;;;;;;;18.50;10.90;;;12.20;99.90;;;;;;5059204;28;20459;-82
2021/04/22 09:10:26;;;;;;;19.60;11.40;;;12.40;99.90;;;;;;5058316;28;20427;-82
2021/04/22 09:12:57;;;;;;;18.33;11.60;;;12.70;99.90;;;;;;5062605;28;20489;-82
2021/04/22 09:15:24;;;;;;;19.80;10.33;;;12.50;99.90;;;;;;5063970;28;20497;-82
2021/04/22 09:17:57;;;;;;;20.40;11.77;;;12.00;99.90;;;;;;5058996;28;20472;-82
2021/04/22 09:20:29;;;;;;;19.83;10.60;;;12.00;99.90;;;;;;5058103;28;20520;-82
2021/04/22 09:22:56;;;;;;;16.07;10.03;;;11.90;99.90;;;;;;5056856;28;20532;-82
2021/04/22 09:25:25;;;;;;;17.50;11.23;;;11.80;99.90;;;;;;5056451;28;20527;-81
2021/04/22 09:27:55;;;;;;;16.60;11.03;;;11.50;99.90;;;;;;5056497;28;20453;-81
2021/04/22 09:30:31;;;;;;;14.77;7.73;;;11.60;99.90;;;;;;5056026;28;20978;-82
2021/04/22 09:32:58;;;;;;;21.50;11.57;;;11.60;99.90;;;;;;5067382;28;20893;-81
2021/04/22 09:35:26;;;;;;;17.13;10.93;;;11.60;99.90;;;;;;5057409;28;20476;-82
2021/04/22 09:37:54;;;;;;;17.87;10.87;;;11.80;99.90;;;;;;5058575;28;20540;-82
2021/04/22 09:40:26;;;;;;;16.80;10.90;;;12.10;99.90;;;;;;5058146;28;20912;-82
2021/04/22 09:42:54;;;;;;;16.17;10.93;;;12.40;99.90;;;;;;5059268;28;20452;-83
2021/04/22 09:45:23;;;;;;;19.00;10.17;;;12.60;99.60;;;;;;5056272;28;20481;-82
2021/04/22 09:47:50;;;;;;;15.47;10.00;;;12.70;98.60;;;;;;5056429;28;20512;-82
2021/04/22 09:50:19;;;;;;;14.97;9.73;;;12.90;97.80;;;;;;5055431;28;21167;-82
2021/04/22 09:52:49;;;;;;;15.90;9.50;;;12.80;97.40;;;;;;5054730;28;20905;-82
2021/04/22 09:55:18;;;;;;;9.87;5.40;;;12.80;97.90;;;;;;5050584;28;20525;-82
2021/04/22 09:57:46;;;;;;;14.60;9.17;;;12.70;97.40;;;;;;5067168;28;20423;-82
2021/04/22 10:00:19;;;;;;;17.30;7.50;;;12.20;97.50;;;;;;5073797;28;20496;-82
2021/04/22 10:02:51;;;;;;;15.50;8.43;;;12.20;97.10;;;;;;5055703;28;20420;-82
2021/04/22 10:05:20;;;;;;;15.27;8.30;;;12.10;97.50;;;;;;5058774;28;20439;-83
2021/04/22 10:07:46;;;;;;;13.27;6.87;;;12.10;96.80;;;;;;5056279;28;20928;-82
2021/04/22 10:10:21;;;;;;;7.80;5.57;;;12.30;95.90;;;;;;5055269;28;20456;-82
2021/04/22 10:12:50;;;;;;;13.53;8.30;;;12.30;95.10;;;;;;5056510;28;20435;-82
2021/04/22 10:15:19;;;;;;;11.43;6.80;;;12.20;95.30;;;;;;5056183;28;20545;-82
2021/04/22 10:17:53;;;;;;;12.47;7.40;;;12.40;94.30;;;;;;5056153;28;20423;-83
2021/04/22 10:20:21;;;;;;;11.80;6.30;;;12.50;93.90;;;;;;5058926;28;20465;-82
2021/04/22 10:22:49;;;;;;;8.73;4.67;;;12.20;92.80;;;;;;5056970;28;20438;-82
2021/04/22 10:25:17;;;;;;;12.43;5.90;;;12.30;93.10;;;;;;5054586;28;20451;-82
2021/04/22 10:27:44;;;;;;;10.00;6.20;;;12.30;91.30;;;;;;5054418;28;20495;-82
2021/04/22 10:30:14;;;;;;;11.13;5.83;;;12.20;91.60;;;;;;5053820;28;20566;-82
2021/04/22 10:32:42;;;;;;;7.23;5.10;;;12.40;92.20;;;;;;5055002;28;20551;-82
2021/04/22 10:35:11;;;;;;;12.90;5.83;;;12.70;91.80;;;;;;5054266;28;20469;-82
2021/04/22 10:37:40;;;;;;;9.70;4.73;;;12.80;91.30;;;;;;5054713;28;20838;-82
2021/04/22 10:40:08;;;;;;;10.73;6.73;;;12.90;90.50;;;;;;5054161;28;20824;-81
2021/04/22 10:42:36;;;;;;;10.47;6.03;;;13.00;90.30;;;;;;5054708;28;20518;-81
2021/04/22 10:45:06;;;;;;;7.13;4.27;;;13.00;88.30;;;;;;5102820;22;20553;-84
2021/04/22 10:47:34;;;;;;;6.07;3.27;;;13.20;85.20;;;;;;5111836;28;20465;-84
2021/04/22 10:50:00;;;;;;;7.10;3.40;;;13.30;74.60;;;;;;5098998;28;20449;-86
2021/04/22 10:52:27;;;;;;;8.60;5.47;;;13.50;72.10;;;;;;5099026;28;20422;-88
2021/04/22 10:54:54;;;;;;;9.43;5.30;;;13.60;79.20;;;;;;5091577;28;20442;-87
2021/04/22 10:57:24;;;;;;;10.23;4.60;;;13.30;80.00;;;;;;5078651;28;20448;-86
2021/04/22 11:00:04;;;;;;;6.13;3.50;;;13.50;79.50;;;;;;5095254;28;20481;-86
2021/04/22 11:02:42;;;;;;;8.70;4.30;;;13.80;74.30;;;;;;5098804;28;20483;-85
2021/04/22 11:05:19;;;;;;;10.03;4.17;;;13.90;72.80;;;;;;5098454;28;20807;-86
2021/04/22 11:07:58;;;;;;;7.90;3.80;;;13.90;71.00;;;;;;5095915;28;20455;-85
2021/04/22 11:10:35;;;;;;;7.57;4.63;;;13.90;70.20;;;;;;5096899;28;20428;-85
2021/04/22 11:13:14;;;;;;;7.93;4.03;;;14.00;71.00;;;;;;5094775;28;20455;-86
2021/04/22 11:15:45;;;;;;;9.00;4.30;;;14.20;68.80;;;;;;5084648;28;20466;-87
2021/04/22 11:18:13;;;;;;;6.77;3.77;;;14.20;69.10;;;;;;5098063;28;20766;-87
2021/04/22 11:20:42;;;;;;;7.80;4.10;;;13.70;70.70;;;;;;5101895;28;20617;-84
2021/04/22 11:23:16;;;;;;;7.73;4.37;;;13.60;71.00;;;;;;5099147;28;20451;-85
2021/04/22 11:25:53;;;;;;;6.13;2.60;;;13.50;70.30;;;;;;5101827;28;20446;-83
2021/04/22 11:28:31;;;;;;;7.90;5.47;;;13.70;70.80;;;;;;5108345;28;20545;-85
2021/04/22 11:31:08;;;;;;;8.37;3.70;;;13.60;71.70;;;;;;5103059;28;20418;-84
2021/04/22 11:33:36;;;;;;;8.90;5.00;;;13.50;73.50;;;;;;5063550;28;20456;-83
2021/04/22 11:36:18;;;;;;;8.93;4.80;;;13.60;71.70;;;;;;5063172;28;20472;-85
2021/04/22 11:38:53;;;;;;;9.83;4.27;;;13.70;70.70;;;;;;5062469;28;20441;-84
2021/04/22 11:41:20;;;;;;;10.87;5.20;;;13.90;70.30;;;;;;5065487;28;20480;-84
2021/04/22 11:43:47;;;;;;;15.00;4.70;;;14.00;71.00;;;;;;5066556;28;20465;-85
2021/04/22 11:46:13;;;;;;;7.60;3.50;;;14.00;69.30;;;;;;5091519;28;20508;-85
2021/04/22 11:48:42;;;;;;;5.47;2.70;;;13.80;68.70;;;;;;5098063;28;20446;-85
2021/04/22 11:51:10;;;;;;;6.60;4.10;;;13.60;69.30;;;;;;5110835;28;20474;-86
2021/04/22 11:53:40;;;;;;;10.13;5.37;;;13.50;69.70;;;;;;5108290;28;20459;-85
2021/04/22 11:56:32;;;;;;;10.90;5.63;;;13.50;69.60;;;;;;5104563;28;20463;-84
2021/04/22 11:58:58;;;;;;;5.70;3.57;;;13.70;69.90;;;;;;5102099;28;20429;-84
2021/04/22 12:01:25;;;;;;;6.40;4.00;;;14.00;66.80;;;;;;5101502;28;20502;-84
2021/04/22 12:03:52;;;;;;;8.40;5.30;;;14.20;67.90;;;;;;5100057;28;20512;-84
2021/04/22 12:06:22;;;;;;;7.07;3.90;;;14.00;68.80;;;;;;5079942;28;20426;-84
2021/04/22 12:08:49;;;;;;;8.77;3.70;;;14.10;66.00;;;;;;5080536;28;20811;-85
2021/04/22 12:11:19;;;;;;;12.43;5.20;;;14.10;69.10;;;;;;5080783;28;20426;-84
2021/04/22 12:13:46;;;;;;;7.30;4.43;;;14.10;70.80;;;;;;5078961;28;20411;-85
2021/04/22 12:16:14;;;;;;;9.03;5.10;;;14.40;71.00;;;;;;5079608;28;20453;-84
2021/04/22 12:18:43;;;;;;;11.40;4.90;;;14.40;70.30;;;;;;5078663;28;20434;-84
2021/04/22 12:21:12;;;;;;;5.90;4.10;;;14.30;70.20;;;;;;5090479;28;20457;-84
2021/04/22 12:23:40;;;;;;;16.53;5.87;;;14.30;70.00;;;;;;5103516;28;20491;-84
2021/04/22 12:26:14;;;;;;;9.67;5.00;;;14.30;67.80;;;;;;5101300;28;20437;-85
2021/04/22 12:28:43;;;;;;;12.27;5.40;;;14.30;66.50;;;;;;5100635;28;20470;-84
2021/04/22 12:31:10;;;;;;;9.13;4.47;;;14.50;65.20;;;;;;5101272;28;20451;-84
2021/04/22 12:33:36;;;;;;;8.57;5.03;;;14.50;65.30;;;;;;5108681;28;20461;-85
2021/04/22 12:36:03;;;;;;;13.70;3.83;;;14.60;67.10;;;;;;5101853;28;20478;-86
2021/04/22 12:38:33;;;;;;;8.63;4.27;;;14.70;68.30;;;;;;5099419;28;20516;-84